Time;durP1;ratioP1;P1;durP2;ratioP2;P2;SDS_P1;SDS_P2;PMS_P1;PMS_P2;Temp;Humidity;BMP_temperature;BMP_pressure;BME280_temperature;BME280_humidity;BME280_pressure;Samples;Min_cycle;Max_cycle;Signal;HPM_P1;HPM_P2
2022/03/25 00:00:28;;;;;;;36.20;16.70;;;;;;;;;;5068771;28;20866;-60
2022/03/25 00:02:54;;;;;;;27.73;14.80;;;;;;;;;;5070038;28;20418;-60
2022/03/25 00:05:20;;;;;;;41.67;17.83;;;;;;;;;;5070113;28;20888;-61
2022/03/25 00:07:46;;;;;;;32.70;15.40;;;;;;;;;;5068751;28;20488;-60
2022/03/25 00:10:12;;;;;;;26.57;15.00;;;;;;;;;;5062351;28;20415;-59
2022/03/25 00:12:39;;;;;;;35.13;16.60;;;;;;;;;;5070135;28;20419;-59
2022/03/25 00:15:06;;;;;;;32.83;16.47;;;;;;;;;;5073002;28;20481;-59
2022/03/25 00:17:32;;;;;;;34.90;16.57;;;;;;;;;;5073953;28;20422;-59
2022/03/25 00:19:58;;;;;;;26.90;15.40;;;;;;;;;;5073755;28;20422;-59
2022/03/25 00:22:24;;;;;;;25.93;15.47;;;;;;;;;;5073743;28;20192;-60
2022/03/25 00:24:50;;;;;;;37.00;18.57;;;;;;;;;;5073514;28;20874;-60
2022/03/25 00:27:17;;;;;;;30.03;16.40;;;;;;;;;;5064572;28;20912;-60
2022/03/25 00:29:43;;;;;;;27.23;14.40;;;;;;;;;;5073346;28;20888;-60
2022/03/25 00:32:09;;;;;;;34.13;16.37;;;;;;;;;;5073434;28;20414;-60
2022/03/25 00:34:36;;;;;;;29.20;15.57;;;;;;;;;;5073406;28;20802;-60
2022/03/25 00:37:02;;;;;;;37.53;14.93;;;;;;;;;;5073446;28;20422;-60
2022/03/25 00:39:28;;;;;;;32.50;15.63;;;;;;;;;;5067686;28;20454;-60
2022/03/25 00:41:54;;;;;;;29.33;15.90;;;;;;;;;;5072354;28;20458;-60
2022/03/25 00:44:20;;;;;;;35.33;17.10;;;;;;;;;;5073204;28;20558;-60
2022/03/25 00:46:46;;;;;;;29.47;15.70;;;;;;;;;;5073186;28;20418;-60
2022/03/25 00:49:12;;;;;;;28.50;15.20;;;;;;;;;;5073121;28;20501;-60
2022/03/25 00:51:39;;;;;;;31.93;16.67;;;;;;;;;;5073188;28;20415;-60
2022/03/25 00:54:05;;;;;;;32.60;16.30;;;;;;;;;;5072992;28;20458;-60
2022/03/25 00:56:31;;;;;;;28.30;15.63;;;;;;;;;;5072875;28;20943;-60
2022/03/25 00:58:57;;;;;;;31.87;16.47;;;;;;;;;;5064929;28;20517;-59
2022/03/25 01:01:25;;;;;;;30.33;14.90;;;;;;;;;;5073049;28;20422;-59
2022/03/25 01:03:51;;;;;;;33.03;15.80;;;;;;;;;;5072994;28;20502;-60
2022/03/25 01:06:18;;;;;;;34.60;15.83;;;;;;;;;;5072804;28;20426;-60
2022/03/25 01:08:44;;;;;;;35.57;15.07;;;;;;;;;;5072765;28;20449;-60
2022/03/25 01:11:10;;;;;;;26.53;15.20;;;;;;;;;;5072837;28;20427;-60
2022/03/25 01:13:36;;;;;;;41.03;16.30;;;;;;;;;;5072456;28;20415;-60
2022/03/25 01:16:03;;;;;;;29.03;15.57;;;;;;;;;;5068381;28;20467;-60
2022/03/25 01:18:29;;;;;;;26.87;14.97;;;;;;;;;;5072658;28;20426;-60
2022/03/25 01:20:55;;;;;;;28.97;15.70;;;;;;;;;;5072399;28;20419;-59
2022/03/25 01:23:21;;;;;;;28.80;15.97;;;;;;;;;;5072529;28;20807;-60
2022/03/25 01:25:47;;;;;;;32.17;16.00;;;;;;;;;;5072070;28;20426;-60
2022/03/25 01:28:13;;;;;;;23.33;14.80;;;;;;;;;;5072338;28;20423;-60
2022/03/25 01:30:39;;;;;;;27.40;15.37;;;;;;;;;;5071221;28;20430;-60
2022/03/25 01:33:06;;;;;;;26.43;14.73;;;;;;;;;;5071823;28;20427;-60
2022/03/25 01:35:32;;;;;;;26.03;13.90;;;;;;;;;;5072246;28;20455;-60
2022/03/25 01:37:58;;;;;;;28.10;14.60;;;;;;;;;;5070201;28;20423;-60
2022/03/25 01:40:24;;;;;;;35.27;14.90;;;;;;;;;;5066182;28;20418;-60
2022/03/25 01:42:50;;;;;;;34.37;15.50;;;;;;;;;;5072265;28;20476;-60
2022/03/25 01:45:27;;;;;;;26.17;14.20;;;;;;;;;;5072031;28;20795;-60
2022/03/25 01:47:53;;;;;;;36.17;14.67;;;;;;;;;;5071953;28;20418;-60
2022/03/25 01:50:20;;;;;;;24.37;14.10;;;;;;;;;;5067365;28;20442;-60
2022/03/25 01:52:46;;;;;;;29.87;15.27;;;;;;;;;;5071933;28;20414;-60
2022/03/25 01:55:21;;;;;;;29.27;14.03;;;;;;;;;;5071934;28;20465;-60
2022/03/25 01:57:47;;;;;;;23.80;13.17;;;;;;;;;;5071742;28;20417;-60
2022/03/25 02:00:14;;;;;;;29.20;14.80;;;;;;;;;;5071828;28;20480;-60
2022/03/25 02:02:40;;;;;;;25.50;14.07;;;;;;;;;;5071664;28;20428;-60
2022/03/25 02:05:06;;;;;;;28.57;14.00;;;;;;;;;;5071713;28;20423;-60
2022/03/25 02:07:32;;;;;;;30.43;14.27;;;;;;;;;;5068417;28;20589;-60
2022/03/25 02:10:00;;;;;;;28.67;13.70;;;;;;;;;;5071691;28;20422;-60
2022/03/25 02:12:26;;;;;;;26.30;14.30;;;;;;;;;;5071605;28;20908;-60
2022/03/25 02:14:52;;;;;;;31.27;13.27;;;;;;;;;;5071118;28;20481;-60
2022/03/25 02:17:18;;;;;;;26.80;13.80;;;;;;;;;;5071478;28;20417;-60
2022/03/25 02:19:44;;;;;;;24.10;13.23;;;;;;;;;;5071506;28;20426;-60
2022/03/25 02:22:10;;;;;;;30.27;13.23;;;;;;;;;;5066832;28;20515;-60
2022/03/25 02:24:36;;;;;;;25.40;12.83;;;;;;;;;;5066876;28;20505;-60
2022/03/25 02:27:03;;;;;;;24.37;12.57;;;;;;;;;;5071314;28;20414;-60
2022/03/25 02:29:29;;;;;;;27.60;13.30;;;;;;;;;;5071136;28;20928;-60
2022/03/25 02:31:55;;;;;;;23.70;12.63;;;;;;;;;;5071104;28;20796;-60
2022/03/25 02:34:21;;;;;;;23.70;12.80;;;;;;;;;;5071279;28;20426;-60
2022/03/25 02:36:47;;;;;;;34.07;13.07;;;;;;;;;;5067167;28;20959;-60
2022/03/25 02:39:14;;;;;;;30.37;13.93;;;;;;;;;;5071019;28;20423;-60
2022/03/25 02:41:40;;;;;;;21.90;12.23;;;;;;;;;;5071070;28;20419;-60
2022/03/25 02:44:07;;;;;;;26.50;12.87;;;;;;;;;;5070924;28;20509;-59
2022/03/25 02:46:33;;;;;;;22.67;11.77;;;;;;;;;;5070914;28;20433;-60
2022/03/25 02:48:59;;;;;;;21.07;12.30;;;;;;;;;;5070921;28;20419;-59
2022/03/25 02:51:25;;;;;;;25.63;13.77;;;;;;;;;;5070912;28;20791;-59
2022/03/25 02:53:51;;;;;;;25.40;12.43;;;;;;;;;;5070489;28;20446;-60
2022/03/25 02:56:18;;;;;;;30.10;14.40;;;;;;;;;;5063636;28;20813;-59
2022/03/25 02:58:44;;;;;;;22.57;13.03;;;;;;;;;;5070753;28;20509;-60
2022/03/25 03:01:10;;;;;;;23.07;12.63;;;;;;;;;;5070849;28;20419;-60
2022/03/25 03:03:36;;;;;;;21.57;11.97;;;;;;;;;;5070713;28;20426;-60
2022/03/25 03:06:02;;;;;;;23.53;12.10;;;;;;;;;;5070710;28;20418;-60
2022/03/25 03:08:30;;;;;;;32.83;13.50;;;;;;;;;;5070719;28;20426;-59
2022/03/25 03:10:56;;;;;;;35.73;13.93;;;;;;;;;;5069897;28;20445;-60
2022/03/25 03:13:23;;;;;;;22.77;12.37;;;;;;;;;;5061897;28;20493;-59
2022/03/25 03:15:50;;;;;;;33.03;14.20;;;;;;;;;;5070808;28;20462;-60
2022/03/25 03:18:16;;;;;;;24.47;13.70;;;;;;;;;;5070688;28;20434;-60
2022/03/25 03:20:43;;;;;;;26.10;13.50;;;;;;;;;;5070525;28;20889;-60
2022/03/25 03:23:09;;;;;;;24.80;12.80;;;;;;;;;;5062392;28;20424;-60
2022/03/25 03:25:36;;;;;;;18.70;11.13;;;;;;;;;;5070653;28;20446;-60
2022/03/25 03:28:02;;;;;;;23.40;14.60;;;;;;;;;;5070258;28;20958;-60
2022/03/25 03:30:28;;;;;;;24.63;12.53;;;;;;;;;;5061384;28;20955;-60
2022/03/25 03:32:57;;;;;;;23.53;13.67;;;;;;;;;;5070541;28;20535;-59
2022/03/25 03:35:24;;;;;;;20.37;12.27;;;;;;;;;;5070431;28;20672;-60
2022/03/25 03:37:50;;;;;;;21.43;12.40;;;;;;;;;;5070357;28;20441;-60
2022/03/25 03:40:16;;;;;;;24.53;11.97;;;;;;;;;;5070535;28;20897;-60
2022/03/25 03:42:42;;;;;;;29.17;13.03;;;;;;;;;;5070027;28;20425;-60
2022/03/25 03:45:08;;;;;;;23.10;12.07;;;;;;;;;;5051619;28;20446;-60
2022/03/25 03:47:35;;;;;;;34.27;12.73;;;;;;;;;;5071384;28;20418;-60
2022/03/25 03:50:01;;;;;;;20.37;11.80;;;;;;;;;;5074536;28;20654;-60
2022/03/25 03:52:27;;;;;;;23.77;12.40;;;;;;;;;;5074379;28;20508;-59
2022/03/25 03:54:53;;;;;;;22.00;12.73;;;;;;;;;;5074138;28;20484;-60
2022/03/25 03:57:19;;;;;;;20.13;12.53;;;;;;;;;;5073985;28;20426;-60
2022/03/25 03:59:45;;;;;;;26.80;11.37;;;;;;;;;;5068935;28;20454;-60
2022/03/25 04:02:11;;;;;;;30.40;12.70;;;;;;;;;;5074096;28;20421;-60
2022/03/25 04:04:37;;;;;;;24.30;11.10;;;;;;;;;;5074081;28;20502;-60
2022/03/25 04:07:03;;;;;;;17.97;10.70;;;;;;;;;;5074183;28;20537;-60
2022/03/25 04:09:29;;;;;;;14.00;9.30;;;;;;;;;;5074018;28;20417;-60
2022/03/25 04:11:55;;;;;;;21.93;11.57;;;;;;;;;;5074046;28;20768;-60
2022/03/25 04:14:22;;;;;;;18.83;10.90;;;;;;;;;;5073675;28;20790;-60
2022/03/25 04:16:48;;;;;;;22.60;11.77;;;;;;;;;;5066386;28;20605;-60
2022/03/25 04:19:14;;;;;;;25.63;11.20;;;;;;;;;;5073741;28;20781;-60
2022/03/25 04:21:40;;;;;;;20.00;10.67;;;;;;;;;;5073605;28;20908;-60
2022/03/25 04:24:07;;;;;;;26.13;9.63;;;;;;;;;;5073667;28;20430;-60
2022/03/25 04:26:32;;;;;;;17.33;9.20;;;;;;;;;;5073525;28;20423;-60
2022/03/25 04:28:59;;;;;;;20.00;10.33;;;;;;;;;;5070949;28;20441;-59
2022/03/25 04:31:25;;;;;;;15.93;9.30;;;;;;;;;;5062481;28;20427;-60
2022/03/25 04:33:51;;;;;;;22.60;10.87;;;;;;;;;;5066938;28;20971;-60
2022/03/25 04:36:17;;;;;;;22.90;9.67;;;;;;;;;;5063926;28;20467;-62
2022/03/25 04:38:43;;;;;;;20.00;9.80;;;;;;;;;;5062087;28;20437;-61
2022/03/25 04:41:12;;;;;;;16.90;9.57;;;;;;;;;;5060386;28;20426;-61
2022/03/25 04:43:38;;;;;;;29.03;10.70;;;;;;;;;;5071826;28;20431;-62
2022/03/25 04:46:05;;;;;;;26.77;12.83;;;;;;;;;;5060233;28;20517;-61
2022/03/25 04:48:32;;;;;;;17.40;8.70;;;;;;;;;;5073456;28;20517;-61
2022/03/25 04:50:58;;;;;;;20.23;9.60;;;;;;;;;;5068454;28;20948;-61
2022/03/25 04:53:25;;;;;;;20.73;10.30;;;;;;;;;;5069052;28;20430;-61
2022/03/25 04:55:52;;;;;;;23.80;11.73;;;;;;;;;;5075785;28;20896;-60
2022/03/25 04:58:18;;;;;;;22.00;9.17;;;;;;;;;;5073051;28;20439;-61
2022/03/25 05:00:44;;;;;;;24.00;9.70;;;;;;;;;;5068989;28;20466;-61
2022/03/25 05:03:10;;;;;;;20.27;9.67;;;;;;;;;;5072843;28;20929;-60
2022/03/25 05:05:37;;;;;;;15.87;9.07;;;;;;;;;;5077079;28;20462;-61
2022/03/25 05:08:03;;;;;;;20.43;9.13;;;;;;;;;;5082307;28;20789;-60
2022/03/25 05:10:29;;;;;;;21.23;9.60;;;;;;;;;;5060331;28;20834;-59
2022/03/25 05:12:56;;;;;;;12.87;8.03;;;;;;;;;;5077915;28;20898;-62
2022/03/25 05:15:22;;;;;;;20.10;10.17;;;;;;;;;;5075679;28;20486;-60
2022/03/25 05:17:51;;;;;;;24.63;8.77;;;;;;;;;;5070686;28;20791;-61
2022/03/25 05:20:17;;;;;;;19.20;9.63;;;;;;;;;;5056260;28;20586;-62
2022/03/25 05:22:43;;;;;;;14.77;9.30;;;;;;;;;;5069548;28;20484;-62
2022/03/25 05:25:10;;;;;;;18.63;9.20;;;;;;;;;;5063295;28;20917;-61
2022/03/25 05:27:43;;;;;;;19.00;9.03;;;;;;;;;;5073104;28;20670;-61
2022/03/25 05:30:09;;;;;;;16.77;8.80;;;;;;;;;;5066331;28;21012;-59
2022/03/25 05:32:35;;;;;;;21.20;9.37;;;;;;;;;;5080157;28;20911;-60
2022/03/25 05:35:01;;;;;;;21.60;9.10;;;;;;;;;;5085357;28;20514;-59
2022/03/25 05:37:27;;;;;;;16.67;8.40;;;;;;;;;;5074970;28;20445;-62
2022/03/25 05:39:53;;;;;;;19.83;8.60;;;;;;;;;;5057210;28;20438;-61
2022/03/25 05:42:19;;;;;;;16.63;8.70;;;;;;;;;;5079615;28;20460;-61
2022/03/25 05:44:45;;;;;;;20.00;7.60;;;;;;;;;;5084054;28;20475;-62
2022/03/25 05:47:11;;;;;;;14.17;8.60;;;;;;;;;;5072010;28;20432;-60
2022/03/25 05:49:37;;;;;;;25.50;8.47;;;;;;;;;;5082095;28;20950;-65
2022/03/25 05:52:03;;;;;;;24.63;8.43;;;;;;;;;;5077684;28;20434;-60
2022/03/25 05:54:29;;;;;;;22.93;9.80;;;;;;;;;;5066839;28;20193;-62
2022/03/25 05:56:55;;;;;;;15.20;8.43;;;;;;;;;;5070584;28;20462;-60
2022/03/25 05:59:21;;;;;;;15.40;7.97;;;;;;;;;;5072969;28;20479;-60
2022/03/25 06:01:47;;;;;;;19.40;8.97;;;;;;;;;;5072278;28;20484;-59
2022/03/25 06:04:13;;;;;;;15.17;8.70;;;;;;;;;;5081333;28;20180;-58
2022/03/25 06:06:39;;;;;;;20.63;9.73;;;;;;;;;;5071337;28;20435;-59
2022/03/25 06:09:05;;;;;;;20.03;9.37;;;;;;;;;;5078611;28;20975;-61
2022/03/25 06:11:31;;;;;;;15.87;9.07;;;;;;;;;;5074540;28;20439;-61
2022/03/25 06:13:57;;;;;;;26.13;9.00;;;;;;;;;;5063790;28;20540;-61
2022/03/25 06:16:23;;;;;;;20.90;8.80;;;;;;;;;;5068698;28;20468;-61
2022/03/25 06:18:49;;;;;;;19.47;8.00;;;;;;;;;;5060847;28;20185;-61
2022/03/25 06:21:16;;;;;;;13.73;7.13;;;;;;;;;;5070992;28;20454;-61
2022/03/25 06:23:42;;;;;;;17.50;7.70;;;;;;;;;;5069497;28;20567;-61
2022/03/25 06:26:08;;;;;;;14.10;6.20;;;;;;;;;;5071291;28;20515;-61
2022/03/25 06:28:35;;;;;;;16.30;7.90;;;;;;;;;;5069714;28;20418;-61
2022/03/25 06:31:01;;;;;;;16.03;8.07;;;;;;;;;;5071285;28;20414;-61
2022/03/25 06:33:27;;;;;;;15.80;7.50;;;;;;;;;;5070971;28;20548;-61
2022/03/25 06:35:53;;;;;;;15.00;7.50;;;;;;;;;;5070978;28;20893;-61
2022/03/25 06:38:19;;;;;;;18.07;9.00;;;;;;;;;;5070955;28;20419;-61
2022/03/25 06:40:45;;;;;;;19.23;9.13;;;;;;;;;;5070913;28;20414;-61
2022/03/25 06:43:11;;;;;;;14.30;7.40;;;;;;;;;;5070710;28;20418;-61
2022/03/25 06:45:37;;;;;;;16.13;7.93;;;;;;;;;;5071163;28;20457;-61
2022/03/25 06:48:03;;;;;;;21.50;8.20;;;;;;;;;;5070700;28;20418;-61
2022/03/25 06:50:30;;;;;;;13.20;8.57;;;;;;;;;;5070984;28;20510;-61
2022/03/25 06:52:57;;;;;;;19.07;8.63;;;;;;;;;;5070953;28;20419;-61
2022/03/25 06:55:24;;;;;;;19.23;9.30;;;;;;;;;;5070690;28;20454;-61
2022/03/25 06:57:50;;;;;;;19.87;9.07;;;;;;;;;;5070678;28;20419;-62
2022/03/25 07:00:17;;;;;;;15.60;8.00;;;;;;;;;;5070658;28;20454;-62
2022/03/25 07:02:43;;;;;;;15.00;9.00;;;;;;;;;;5070724;28;20821;-61
2022/03/25 07:05:10;;;;;;;20.53;8.47;;;;;;;;;;5062521;28;20418;-61
2022/03/25 07:07:37;;;;;;;18.30;10.00;;;;;;;;;;5070698;28;20415;-61
2022/03/25 07:10:03;;;;;;;14.80;9.47;;;;;;;;;;5070661;28;20446;-61
2022/03/25 07:12:29;;;;;;;24.13;10.13;;;;;;;;;;5070358;28;20418;-61
2022/03/25 07:14:55;;;;;;;18.33;9.27;;;;;;;;;;5070124;28;20457;-61
2022/03/25 07:17:21;;;;;;;21.10;8.90;;;;;;;;;;5070337;28;20414;-61
2022/03/25 07:19:47;;;;;;;15.33;8.47;;;;;;;;;;5070410;28;20809;-61
2022/03/25 07:22:13;;;;;;;19.83;9.77;;;;;;;;;;5070079;28;20453;-61
2022/03/25 07:24:39;;;;;;;17.63;8.83;;;;;;;;;;5052228;28;20282;-61
2022/03/25 07:27:05;;;;;;;18.23;9.27;;;;;;;;;;5070434;28;20513;-61
2022/03/25 07:29:31;;;;;;;17.97;10.00;;;;;;;;;;5070423;28;20484;-61
2022/03/25 07:31:57;;;;;;;25.70;11.93;;;;;;;;;;5070403;28;20431;-61
2022/03/25 07:34:23;;;;;;;14.53;9.00;;;;;;;;;;5070282;28;20204;-61
2022/03/25 07:36:49;;;;;;;14.70;8.90;;;;;;;;;;5052417;28;20921;-61
2022/03/25 07:39:15;;;;;;;22.97;8.97;;;;;;;;;;5070257;28;20249;-61
2022/03/25 07:41:41;;;;;;;17.53;10.57;;;;;;;;;;5052141;28;20188;-61
2022/03/25 07:44:07;;;;;;;23.13;9.57;;;;;;;;;;5070285;28;20419;-61
2022/03/25 07:46:33;;;;;;;21.90;10.33;;;;;;;;;;5070082;28;20181;-61
2022/03/25 07:48:59;;;;;;;17.23;9.37;;;;;;;;;;5070191;28;20601;-61
2022/03/25 07:51:25;;;;;;;15.03;9.13;;;;;;;;;;5070268;28;20422;-61
2022/03/25 07:53:51;;;;;;;17.30;9.70;;;;;;;;;;5070319;28;20709;-61
2022/03/25 07:56:17;;;;;;;19.93;9.57;;;;;;;;;;5069930;28;20454;-61
2022/03/25 07:58:43;;;;;;;15.97;9.57;;;;;;;;;;5070178;28;20802;-61
2022/03/25 08:01:09;;;;;;;15.80;10.70;;;;;;;;;;5040208;28;20438;-61
2022/03/25 08:03:35;;;;;;;19.07;9.67;;;;;;;;;;5065508;28;20414;-61
2022/03/25 08:06:03;;;;;;;19.37;9.80;;;;;;;;;;5069959;28;20467;-61
2022/03/25 08:08:29;;;;;;;17.20;9.53;;;;;;;;;;5070184;28;20422;-61
2022/03/25 08:10:56;;;;;;;16.97;10.57;;;;;;;;;;5069980;28;20781;-61
2022/03/25 08:13:25;;;;;;;18.37;10.13;;;;;;;;;;5069610;28;20802;-59
2022/03/25 08:15:51;;;;;;;21.83;10.40;;;;;;;;;;5069891;28;20454;-61
2022/03/25 08:18:17;;;;;;;18.97;11.43;;;;;;;;;;5070099;28;20766;-61
2022/03/25 08:20:44;;;;;;;15.93;10.10;;;;;;;;;;5069951;28;20983;-60
2022/03/25 08:23:13;;;;;;;25.00;12.20;;;;;;;;;;5061825;28;20952;-61
2022/03/25 08:28:27;;;;;;;22.13;10.50;;;;;;;;;;5064456;28;20460;-61
2022/03/25 08:30:53;;;;;;;24.40;11.10;;;;;;;;;;5069756;28;20446;-61
2022/03/25 08:33:19;;;;;;;19.97;11.17;;;;;;;;;;5069967;28;20978;-62
2022/03/25 08:35:47;;;;;;;21.40;10.50;;;;;;;;;;5054484;28;20471;-62
2022/03/25 08:38:13;;;;;;;25.70;11.77;;;;;;;;;;5073655;28;20501;-61
2022/03/25 08:40:40;;;;;;;31.00;10.97;;;;;;;;;;5073283;28;20418;-60
2022/03/25 08:43:06;;;;;;;23.87;9.57;;;;;;;;;;5073420;28;20461;-61
2022/03/25 08:45:33;;;;;;;18.40;10.90;;;;;;;;;;5073342;28;20500;-60
2022/03/25 08:47:59;;;;;;;17.83;10.20;;;;;;;;;;5073298;28;20919;-61
2022/03/25 08:50:26;;;;;;;21.23;11.00;;;;;;;;;;5073246;28;20437;-61
2022/03/25 08:52:53;;;;;;;18.40;10.97;;;;;;;;;;5073230;28;20430;-61
2022/03/25 08:55:20;;;;;;;25.53;11.37;;;;;;;;;;5072974;28;20458;-61
2022/03/25 08:57:47;;;;;;;28.60;12.30;;;;;;;;;;5073026;28;20469;-61
2022/03/25 09:00:14;;;;;;;19.13;10.73;;;;;;;;;;5073040;28;20406;-61
2022/03/25 09:02:42;;;;;;;17.70;9.20;;;;;;;;;;5072988;28;20912;-61
2022/03/25 09:05:08;;;;;;;18.67;10.93;;;;;;;;;;5073065;28;20493;-61
2022/03/25 09:07:34;;;;;;;16.70;10.43;;;;;;;;;;5072823;28;20426;-60
2022/03/25 09:10:01;;;;;;;16.87;11.00;;;;;;;;;;5072897;28;20446;-62
2022/03/25 09:12:27;;;;;;;24.00;11.67;;;;;;;;;;5072841;28;20912;-60
2022/03/25 09:14:53;;;;;;;18.80;11.07;;;;;;;;;;5072534;28;20507;-60
2022/03/25 09:17:19;;;;;;;25.83;11.50;;;;;;;;;;5073218;28;20435;-61
2022/03/25 09:19:45;;;;;;;22.73;11.80;;;;;;;;;;5072727;28;20441;-61
2022/03/25 09:22:11;;;;;;;24.87;11.87;;;;;;;;;;5072841;28;20334;-61
2022/03/25 09:24:37;;;;;;;23.00;11.57;;;;;;;;;;5072956;28;20505;-61
2022/03/25 09:27:04;;;;;;;21.50;11.47;;;;;;;;;;5072388;28;20517;-60
2022/03/25 09:29:30;;;;;;;23.13;12.20;;;;;;;;;;5072648;28;20189;-61
2022/03/25 09:31:56;;;;;;;23.87;12.93;;;;;;;;;;5072475;28;20482;-61
2022/03/25 09:37:07;;;;;;;21.53;11.40;;;;;;;;;;5072289;28;20457;-60
2022/03/25 09:39:33;;;;;;;23.43;12.60;;;;;;;;;;5054300;28;20526;-61
2022/03/25 09:41:59;;;;;;;29.70;12.57;;;;;;;;;;5072273;28;20560;-60
2022/03/25 09:44:25;;;;;;;20.13;11.47;;;;;;;;;;5072405;28;20423;-60
2022/03/25 09:46:52;;;;;;;28.40;11.60;;;;;;;;;;5071809;28;20431;-60
2022/03/25 09:49:18;;;;;;;24.67;10.97;;;;;;;;;;5054127;28;20426;-61
2022/03/25 09:51:45;;;;;;;21.77;13.27;;;;;;;;;;5053946;28;20835;-61
2022/03/25 09:54:13;;;;;;;22.13;11.63;;;;;;;;;;5072002;28;20506;-61
2022/03/25 09:56:40;;;;;;;15.23;10.43;;;;;;;;;;5071682;28;20461;-61
2022/03/25 09:59:06;;;;;;;22.57;9.87;;;;;;;;;;5072040;28;20422;-62
2022/03/25 10:01:32;;;;;;;14.33;9.87;;;;;;;;;;5071912;28;20458;-62
2022/03/25 10:03:59;;;;;;;18.77;10.10;;;;;;;;;;5071817;28;20410;-61
2022/03/25 10:06:24;;;;;;;21.00;11.70;;;;;;;;;;5071889;28;20788;-62
2022/03/25 10:09:02;;;;;;;20.63;12.37;;;;;;;;;;5071699;28;20935;-62
2022/03/25 10:11:30;;;;;;;23.10;11.40;;;;;;;;;;5071511;28;20203;-61
2022/03/25 10:14:15;;;;;;;16.80;11.00;;;;;;;;;;5053584;28;20478;-61
2022/03/25 10:16:45;;;;;;;40.43;11.83;;;;;;;;;;5071496;28;20534;-61
2022/03/25 10:19:12;;;;;;;19.07;11.63;;;;;;;;;;5063670;28;20430;-61
2022/03/25 10:21:57;;;;;;;22.70;11.70;;;;;;;;;;5071484;28;20407;-60
2022/03/25 10:24:44;;;;;;;20.20;13.13;;;;;;;;;;5041805;28;20499;-60
2022/03/25 10:27:10;;;;;;;26.93;14.73;;;;;;;;;;5062926;28;20441;-61
2022/03/25 10:29:37;;;;;;;18.43;11.60;;;;;;;;;;5053513;28;20438;-60
2022/03/25 10:32:10;;;;;;;29.53;12.00;;;;;;;;;;5071285;28;20443;-61
2022/03/25 10:34:37;;;;;;;19.00;11.87;;;;;;;;;;5071266;28;20945;-61
2022/03/25 10:37:09;;;;;;;22.07;12.67;;;;;;;;;;5071022;28;20487;-61
2022/03/25 10:39:35;;;;;;;24.83;11.20;;;;;;;;;;5053301;28;20438;-61
2022/03/25 10:42:02;;;;;;;22.20;13.77;;;;;;;;;;5070856;28;20492;-61
2022/03/25 10:44:40;;;;;;;20.60;12.67;;;;;;;;;;5071094;28;20457;-61
2022/03/25 10:47:15;;;;;;;29.10;15.03;;;;;;;;;;5070952;28;20418;-61
2022/03/25 10:49:43;;;;;;;25.93;13.10;;;;;;;;;;5070948;28;20453;-61
2022/03/25 10:52:21;;;;;;;25.40;12.57;;;;;;;;;;5062751;28;20415;-61
2022/03/25 10:54:47;;;;;;;26.10;14.30;;;;;;;;;;5071049;28;20426;-61
2022/03/25 10:57:15;;;;;;;20.37;12.73;;;;;;;;;;5069834;28;20465;-61
2022/03/25 10:59:41;;;;;;;23.97;14.60;;;;;;;;;;5070853;28;20498;-61
2022/03/25 11:02:08;;;;;;;26.37;14.40;;;;;;;;;;5070726;28;21025;-60
2022/03/25 11:04:34;;;;;;;22.80;13.47;;;;;;;;;;5070712;28;20936;-61
2022/03/25 11:07:01;;;;;;;23.27;13.83;;;;;;;;;;5070504;28;20519;-61
2022/03/25 11:09:27;;;;;;;23.13;13.83;;;;;;;;;;5052534;28;21025;-61
2022/03/25 11:11:54;;;;;;;22.73;13.60;;;;;;;;;;5070373;28;20418;-61
2022/03/25 11:14:21;;;;;;;28.70;14.83;;;;;;;;;;5053591;28;20477;-57
2022/03/25 11:16:55;;;;;;;37.70;15.43;;;;;;;;;;5070353;28;20486;-58
2022/03/25 11:19:21;;;;;;;36.13;15.43;;;;;;;;;;5052748;28;20864;-57
2022/03/25 11:21:48;;;;;;;24.53;14.30;;;;;;;;;;5070516;28;20418;-57
2022/03/25 11:24:20;;;;;;;39.83;16.93;;;;;;;;;;5070550;28;20787;-57
2022/03/25 11:26:49;;;;;;;25.67;15.90;;;;;;;;;;5070361;28;20422;-57
2022/03/25 11:29:16;;;;;;;20.13;12.33;;;;;;;;;;5070430;28;20814;-57
2022/03/25 11:32:01;;;;;;;19.00;11.97;;;;;;;;;;5070407;28;20934;-57
2022/03/25 11:34:27;;;;;;;23.57;10.23;;;;;;;;;;5064682;28;20418;-57
2022/03/25 11:37:12;;;;;;;25.63;12.70;;;;;;;;;;5070308;28;20660;-56
2022/03/25 11:39:38;;;;;;;20.70;13.10;;;;;;;;;;5057765;28;20183;-56
2022/03/25 11:42:04;;;;;;;21.93;13.23;;;;;;;;;;5069968;28;20483;-57
2022/03/25 11:44:31;;;;;;;24.07;13.60;;;;;;;;;;5070321;28;20426;-56
2022/03/25 11:47:00;;;;;;;22.57;13.53;;;;;;;;;;5070225;28;20896;-57
2022/03/25 11:49:30;;;;;;;19.50;13.50;;;;;;;;;;5070258;28;20419;-57
2022/03/25 11:51:56;;;;;;;25.97;11.53;;;;;;;;;;5070200;28;20433;-57
2022/03/25 11:54:42;;;;;;;16.50;10.97;;;;;;;;;;5070197;28;20534;-57
2022/03/25 11:57:24;;;;;;;25.37;12.33;;;;;;;;;;5069899;28;20458;-57
2022/03/25 12:00:19;;;;;;;20.87;9.10;;;;;;;;;;5070264;28;20430;-57
2022/03/25 12:02:59;;;;;;;21.57;11.23;;;;;;;;;;5052505;28;20431;-57
2022/03/25 12:05:36;;;;;;;20.83;12.50;;;;;;;;;;5070109;28;20453;-57
2022/03/25 12:08:20;;;;;;;20.53;13.10;;;;;;;;;;5070147;28;20505;-57
2022/03/25 12:10:46;;;;;;;21.93;12.20;;;;;;;;;;5073874;28;20421;-57
2022/03/25 12:13:13;;;;;;;27.07;12.53;;;;;;;;;;5073662;28;20430;-57
2022/03/25 12:15:46;;;;;;;19.60;12.53;;;;;;;;;;5073559;28;20502;-57
2022/03/25 12:18:31;;;;;;;20.70;12.50;;;;;;;;;;5065960;28;20421;-57
2022/03/25 12:20:57;;;;;;;24.53;12.17;;;;;;;;;;5073831;28;20476;-57
2022/03/25 12:23:23;;;;;;;24.90;11.73;;;;;;;;;;5073640;28;20422;-57
2022/03/25 12:25:49;;;;;;;22.13;13.50;;;;;;;;;;5073774;28;20172;-57
2022/03/25 12:28:22;;;;;;;29.03;14.43;;;;;;;;;;5073644;28;20436;-57
2022/03/25 12:30:49;;;;;;;23.00;14.60;;;;;;;;;;5073604;28;20231;-57
2022/03/25 12:33:15;;;;;;;29.17;15.47;;;;;;;;;;5073693;28;20433;-57
2022/03/25 12:35:41;;;;;;;32.40;15.37;;;21.60;1.00;;;;;;5073553;28;20557;-56
2022/03/25 12:38:21;;;;;;;31.00;16.60;;;21.00;1.00;;;;;;5073408;28;20505;-57
2022/03/25 12:40:49;;;;;;;24.40;14.20;;;;;;;;;;5073244;28;20184;-57
2022/03/25 12:43:15;;;;;;;26.63;15.90;;;;;;;;;;5073476;28;20484;-57
2022/03/25 12:45:44;;;;;;;30.73;14.90;;;;;;;;;;5073355;28;20521;-57
2022/03/25 12:48:12;;;;;;;23.60;14.73;;;;;;;;;;5065241;28;20415;-57
2022/03/25 12:50:42;;;;;;;28.37;14.57;;;;;;;;;;5073239;28;20430;-57
2022/03/25 12:53:08;;;;;;;32.30;15.63;;;;;;;;;;5073272;28;20417;-57
2022/03/25 12:55:34;;;;;;;24.20;15.23;;;;;;;;;;5072972;28;20450;-56
2022/03/25 12:58:02;;;;;;;26.10;14.50;;;;;;;;;;5073267;28;20421;-56
2022/03/25 13:00:33;;;;;;;28.83;15.20;;;;;;;;;;5073893;28;20426;-55
2022/03/25 13:02:59;;;;;;;25.13;14.23;;;;;;;;;;5073671;28;20780;-56
2022/03/25 13:05:25;;;;;;;27.90;15.00;;;;;;;;;;5068962;28;20423;-54
2022/03/25 13:07:57;;;;;;;19.27;12.17;;;;;;;;;;5068226;28;20184;-53
2022/03/25 13:10:24;;;;;;;19.57;13.20;;;;;;;;;;5065671;28;20461;-52
2022/03/25 13:12:53;;;;;;;22.63;12.90;;;;;;;;;;5069097;28;20922;-52
2022/03/25 13:15:25;;;;;;;22.03;12.93;;;;;;;;;;5060685;28;20471;-54
2022/03/25 13:17:52;;;;;;;24.67;16.23;;;;;;;;;;5062405;28;20838;-56
2022/03/25 13:20:18;;;;;;;32.40;18.27;;;;;;;;;;5065714;28;20537;-56
2022/03/25 13:22:54;;;;;;;20.03;14.20;;;;;;;;;;5070242;28;20425;-55
2022/03/25 13:25:27;;;;;;;26.50;14.47;;;;;;;;;;5072228;28;20468;-56
2022/03/25 13:27:54;;;;;;;26.70;15.40;;;;;;;;;;5071607;28;20445;-55
2022/03/25 13:30:20;;;;;;;20.60;14.30;;;;;;;;;;5073137;28;20484;-54
2022/03/25 13:32:55;;;;;;;20.10;13.10;;;;;;;;;;5072794;28;20465;-54
2022/03/25 13:35:21;;;;;;;28.07;14.33;;;;;;;;;;5072997;28;20852;-55
2022/03/25 13:37:57;;;;;;;24.73;12.77;;;;;;;;;;5073139;28;20422;-55
2022/03/25 13:40:37;;;;;;;20.33;12.67;;;;;;;;;;5064556;28;20192;-57
2022/03/25 13:43:05;;;;;;;27.93;13.93;;;;;;;;;;5072745;28;20852;-56
2022/03/25 13:45:31;;;;;;;24.73;12.70;;;;;;;;;;5072758;28;20457;-57
2022/03/25 13:48:01;;;;;;;23.17;13.60;;;;;;;;;;5070110;28;20446;-56
2022/03/25 13:50:28;;;;;;;24.73;14.30;;;;;;;;;;5054877;28;20188;-56
2022/03/25 13:52:54;;;;;;;24.23;13.33;;;;;;;;;;5072638;28;20415;-56
2022/03/25 13:55:21;;;;;;;27.87;14.70;;;;;;;;;;5072447;28;20497;-56
2022/03/25 13:57:54;;;;;;;34.33;13.63;;;;;;;;;;5072753;28;20423;-55
2022/03/25 14:00:28;;;;;;;21.20;14.80;;;;;;;;;;5072541;28;20414;-56
2022/03/25 14:02:54;;;;;;;34.53;15.80;;;;;;;;;;5072690;28;20411;-55
2022/03/25 14:05:25;;;;;;;20.73;14.37;;;;;;;;;;5072034;28;20911;-55
2022/03/25 14:07:51;;;;;;;34.27;16.37;;;;;;;;;;5072280;28;20414;-55
2022/03/25 14:10:17;;;;;;;25.40;14.57;;;;;;;;;;5072069;28;20429;-55
2022/03/25 14:12:43;;;;;;;27.33;14.60;;;;;;;;;;5071945;28;20553;-55
2022/03/25 14:15:11;;;;;;;29.40;15.60;;;;;;;;;;5063476;28;20648;-55
2022/03/25 14:17:39;;;;;;;28.30;12.33;;;;;;;;;;5054197;28;21172;-55
2022/03/25 14:20:08;;;;;;;25.97;12.60;;;;;;;;;;5071777;28;20962;-55
2022/03/25 14:22:34;;;;;;;20.97;12.20;;;;;;;;;;5072109;28;20423;-55
2022/03/25 14:25:01;;;;;;;21.30;13.70;;;;;;;;;;5071958;28;20429;-55